Alpena, Michigan
Current Conditions -  °F | °C
As of 7:54 AM on Friday 31 Oct 2014 (Local Time) from KAPN Reporting Station
Light Rain Light Rain  
Wind Chill: 27°   Ceiling: 800
Heat Index: 37°   Visibility: 5mi
Dew Point: 34°   Wind: 20mph
Humidity: 89%   Direction: 20°NNE
Pressure: 29.94"   Gusts: 32mph
Location:  45.06°N, 83.44°W
Report Text: KAPN 311154Z AUTO 02017G28KT 5SM -RA BR OVC008 03/01 A2994 RMK AO2 PK WND 03031/1134 RAB21SNB39E48 CIG 006V012 SLP143 P0002 60005 70009 T00280011 10050 20028 53018 TSNO
Loading
Personal Weather Stations






























Interactive Weather Map
Tropical Storm Tracking
New forecast layout! Learn more

10-Day Weather Forecast

Advertisements
Track Severe Weather on mobile